KHOU

William P Hobby Airport

Houston, Texas, USA
METAR KHOU 181059Z 17003KT 10SM -RA SCT010 SCT018 BKN025 24/24 A2989 RMK AO2 RAB56 P0000 T02440244
Observed Flight Rules
Jun-18 @ 10:59 UTC (12 minutes ago) Marginal Visual Flight Rules
Wind Visibility Clouds Conditions
170° at 3 knots 10 miles
  • Scattered at 1,000' AGL
  • Scattered at 1,800' AGL
  • Broken at 2,500' AGL
  • Light Rain
Temperatures Readings Precipitation
Current 24°C / 75°F
Dewpoint 24°C / 75°F
Humidity 100%
Altimeter 29.89" Hg
Pressure 1012 hPa
Elevation 36
Current Rain 0.005
METAR KHOU 181059Z 17003KT 10SM -RA SCT010 SCT018 BKN025 24/24 A2989 RMK AO2 RAB56 P0000 T02440244
Observed Flight Rules
Jun-18 @ 10:59 UTC
(12 minutes ago)
MVFR
Wind Visibility
170° at 3 knots 10 miles
Clouds
  • Scattered at 1,000' AGL
  • Scattered at 1,800' AGL
  • Broken at 2,500' AGL
Conditions
  • Light Rain
Temperature Dewpoint
24°C / 75°F 24°C / 75°F
Humidity Altimeter Pressure
100% 29.89" Hg 1012 hPa
Current Rain
0.005